Airfield :
LOGIN :

Register | Disclaimer

   EN    FR    IT 

 










Legend :    VFR   Marginal VFR   IFR   Intensive IFR   Very Intensive IFR
Visi :
Ceiling :
>= 8 km
>= 3000ft
5 to 8 km
1000 to 3000 ft
1500m to 5 km
500 to 1000 ft
800 to 1500m
200 to 500 ft
< 800m
< 200 ft
Symbols :   Thunderstorms  Fog  Heavy snow  Heavy precipitations  Wind > 20 kt
SIGMETs :     Misc.  Thunderstorms  Icing  Turbulence  Mountain Waves  Volcanic Ashes







- Airport Elevation : 357 ft
- IATA code : TUF
- Download approach charts


LFOT - Tours

CURRENT METAR :
  • 251400Z AUTO 21008KT 180V240 9999 TSRA BKN046/// BKN054/// BKN074/// ///CB 11/08 Q1006 TEMPO 22020G40KT 2000 TSRAGS BKN013 SCT025CB

EXPIRED METARs :
  • 251330Z AUTO 20007KT 9999 -RA VCTS FEW036/// SCT045/// BKN062/// ///CB 09/06 Q1005 TEMPO 22020G40KT 2000 TSRAGS BKN013 SCT025CB
  • 251300Z AUTO 19014KT 160V240 9999 VCTS FEW033/// BKN040/// BKN047/// ///CB 14/07 Q1004 TEMPO 22020G40KT 2000 TSRAGS BKN013 SCT025CB
  • 251230Z AUTO 18009KT 140V210 9999 ///CB 14/09 Q1004 TEMPO 22020G40KT 2000 TSRAGS BKN013 SCT025CB
  • 251200Z AUTO 17008KT 140V210 9999 VCTS FEW030/// SCT066/// ///CB 13/08 Q1004 TEMPO 22015G35KT 2000 TSRAGS BKN013 SCT025CB
  • 251130Z AUTO 18011KT 160V220 9999 SCT029/// BKN045/// BKN054/// ///CB 13/07 Q1004 TEMPO 22015G35KT 2000 TSRAGS BKN010 SCT025CB

TAF AMD TAF LFOT
Valid from the 25 at 12:00 until the 26 at 12:00 UTC


251148Z 2512/2612 18010KT 9999 BKN030
TEMPO 2512/2518 18015G25KT 4000 SHRA BKN013 SCT025CB
PROB40
TEMPO 2512/2517 22020G40KT 2000 TSRAGS BKN025CB
BECMG 2519/2521 CAVOK
PROB40
TEMPO 2601/2607 4000 BR BKN007
BECMG 2607/2609 SCT020
No reported NOTAMs for that airfield.
1 SIGMET reported for the Paris FIR (LFFF) :
 
Embedded thunderstorms
LFFF SIGMET 6 VALID 251350/251600 LFPW
LFFF PARIS FIR/UIR EMBD TS OBS AT 1350Z WI N5000 W00015 - N5045 E00115 - N4715 E00145 - N4715 E00000 - N5000 W00015 TOP FL290 MOV NE 25KT NC=



MET'MAP, your aeronautical weather chart ! - Copyright ORBIFLY December 2007 - Disclaimer

ORBIFLY MET'MAP TEAM :

Programming & Development : Alexandra Zaïnal
Concept & Development : Baudouin d'Aumeries
Co-Development & Prog : Marc-Olivier Méhu
Technical & hardware support : Manuel Goepfert

Contact : metmap@orbifly.com




SOURCES & CREDITS :

   NOAA